Time;durP1;ratioP1;P1;durP2;ratioP2;P2;SDS_P1;SDS_P2;PMS_P1;PMS_P2;Temp;Humidity;BMP_temperature;BMP_pressure;BME280_temperature;BME280_humidity;BME280_pressure;Samples;Min_cycle;Max_cycle;Signal;HPM_P1;HPM_P2
2023/03/03 00:01:14;;;;;;;;;54.33;41.67;;;;;;;;5064266;28;61978;-79
2023/03/03 00:03:40;;;;;;;;;51.25;40.75;;;;;;;;5082997;28;61704;-79
2023/03/03 00:06:08;;;;;;;;;51.75;38.75;;;;;;;;5082011;28;61751;-79
2023/03/03 00:08:33;;;;;;;;;56.33;39.67;;;;;;;;5082176;27;61868;-79
2023/03/03 00:10:59;;;;;;;;;49.67;42.00;;;;;;;;5064436;28;61862;-79
2023/03/03 00:13:26;;;;;;;;;54.33;40.00;;;;;;;;5064285;28;61842;-79
2023/03/03 00:15:52;;;;;;;;;52.67;42.67;;;;;;;;5081866;28;62155;-79
2023/03/03 00:18:17;;;;;;;;;54.67;43.67;;;;;;;;5082261;28;61846;-79
2023/03/03 00:20:46;;;;;;;;;50.50;38.25;;;;;;;;5082396;28;61991;-79
2023/03/03 00:23:30;;;;;;;;;50.50;39.50;;;;;;;;5082568;28;61679;-79
2023/03/03 00:25:56;;;;;;;;;43.25;39.00;;;;;;;;5082126;28;61972;-79
2023/03/03 00:28:24;;;;;;;;;55.00;40.50;;;;;;;;5064015;28;61796;-79
2023/03/03 00:30:50;;;;;;;;;48.50;40.00;;;;;;;;5063210;28;62059;-79
2023/03/03 00:33:18;;;;;;;;;58.25;39.00;;;;;;;;5082547;27;62133;-79
2023/03/03 00:35:44;;;;;;;;;45.75;38.00;;;;;;;;5063535;27;64989;-79
2023/03/03 00:38:11;;;;;;;;;50.67;41.33;;;;;;;;5063514;28;62120;-79
2023/03/03 00:40:38;;;;;;;;;41.67;37.00;;;;;;;;5082049;27;61970;-79
2023/03/03 00:43:23;;;;;;;;;42.00;38.00;;;;;;;;5084119;28;61733;-79
2023/03/03 00:45:53;;;;;;;;;53.67;38.00;;;;;;;;5066335;28;63821;-79
2023/03/03 00:48:20;;;;;;;;;44.00;35.50;;;;;;;;5067592;27;61716;-80
2023/03/03 00:50:46;;;;;;;;;52.75;40.00;;;;;;;;5067257;28;61699;-80
2023/03/03 00:53:18;;;;;;;;;53.67;40.00;;;;;;;;5067048;28;61929;-80
2023/03/03 00:55:45;;;;;;;;;49.50;39.25;;;;;;;;5085098;27;61925;-80
2023/03/03 00:58:11;;;;;;;;;55.00;39.33;;;;;;;;5067141;28;61896;-80
2023/03/03 01:00:36;;;;;;;;;41.00;35.67;;;;;;;;5066765;28;62039;-80
2023/03/03 01:03:07;;;;;;;;;60.67;42.00;;;;;;;;5085959;27;61834;-80
2023/03/03 01:05:33;;;;;;;;;51.00;40.33;;;;;;;;5084590;27;61847;-80
2023/03/03 01:07:58;;;;;;;;;36.25;29.50;;;;;;;;5067033;28;61717;-80
2023/03/03 01:10:26;;;;;;;;;61.50;41.25;;;;;;;;5067240;28;61907;-80
2023/03/03 01:12:51;;;;;;;;;58.25;42.50;;;;;;;;5066830;27;61766;-79
2023/03/03 01:15:16;;;;;;;;;48.75;39.50;;;;;;;;5066305;28;64630;-79
2023/03/03 01:17:42;;;;;;;;;60.50;44.00;;;;;;;;5085115;28;61691;-79
2023/03/03 01:20:08;;;;;;;;;50.00;40.00;;;;;;;;5085227;27;61899;-79
2023/03/03 01:22:34;;;;;;;;;60.75;40.50;;;;;;;;5066833;28;61928;-79
2023/03/03 01:24:59;;;;;;;;;53.75;43.25;;;;;;;;5084576;27;62967;-79
2023/03/03 01:27:24;;;;;;;;;44.00;38.67;;;;;;;;5084874;27;61734;-79
2023/03/03 01:29:49;;;;;;;;;47.33;40.67;;;;;;;;5066271;28;61929;-79
2023/03/03 01:32:15;;;;;;;;;48.67;38.67;;;;;;;;5084891;28;61984;-79
2023/03/03 01:34:40;;;;;;;;;44.67;40.33;;;;;;;;5066099;28;64739;-79
2023/03/03 01:37:05;;;;;;;;;54.67;44.00;;;;;;;;5085184;27;61678;-79
2023/03/03 01:39:30;;;;;;;;;49.67;40.00;;;;;;;;5084449;28;61785;-79
2023/03/03 01:41:56;;;;;;;;;57.33;40.67;;;;;;;;5066396;28;61854;-79
2023/03/03 01:44:21;;;;;;;;;55.33;37.00;;;;;;;;5084416;28;61933;-79
2023/03/03 01:46:46;;;;;;;;;49.33;40.00;;;;;;;;5084792;27;61923;-79
2023/03/03 01:49:18;;;;;;;;;45.00;37.67;;;;;;;;5084769;28;61857;-79
2023/03/03 01:51:47;;;;;;;;;37.67;35.33;;;;;;;;5084917;27;61830;-79
2023/03/03 01:54:22;;;;;;;;;51.67;43.00;;;;;;;;5083375;28;62051;-79
2023/03/03 01:56:48;;;;;;;;;45.67;38.00;;;;;;;;5084443;28;62054;-79
2023/03/03 01:59:16;;;;;;;;;59.33;43.00;;;;;;;;5084579;28;61864;-79
2023/03/03 02:01:41;;;;;;;;;36.67;31.33;;;;;;;;5066514;28;62113;-79
2023/03/03 02:04:07;;;;;;;;;52.00;35.00;;;;;;;;5065359;27;64630;-79
2023/03/03 02:06:35;;;;;;;;;60.00;42.33;;;;;;;;5066468;28;61813;-79
2023/03/03 02:09:06;;;;;;;;;52.67;39.67;;;;;;;;5083920;28;61920;-79
2023/03/03 02:11:35;;;;;;;;;61.00;41.00;;;;;;;;5084561;27;61825;-79
2023/03/03 02:14:00;;;;;;;;;54.00;42.00;;;;;;;;5065172;28;63787;-79
2023/03/03 02:16:25;;;;;;;;;57.00;40.00;;;;;;;;5066047;28;61857;-79
2023/03/03 02:18:51;;;;;;;;;53.33;39.67;;;;;;;;5084057;27;61814;-79
2023/03/03 02:21:16;;;;;;;;;48.67;37.67;;;;;;;;5066314;28;61766;-79
2023/03/03 02:24:01;;;;;;;;;40.67;37.00;;;;;;;;5083467;28;62239;-79
2023/03/03 02:26:28;;;;;;;;;62.00;38.00;;;;;;;;5065371;28;61845;-79
2023/03/03 02:28:53;;;;;;;;;52.33;39.67;;;;;;;;5065432;27;61889;-79
2023/03/03 02:31:21;;;;;;;;;55.00;43.67;;;;;;;;5083971;27;61961;-79
2023/03/03 02:33:47;;;;;;;;;52.67;43.33;;;;;;;;5083351;27;62090;-79
2023/03/03 02:36:21;;;;;;;;;62.33;43.00;;;;;;;;5084043;27;61978;-79
2023/03/03 02:38:46;;;;;;;;;43.00;37.00;;;;;;;;5083752;27;61758;-79
2023/03/03 02:41:17;;;;;;;;;58.00;43.00;;;;;;;;5083831;28;61761;-79
2023/03/03 02:43:51;;;;;;;;;47.33;38.33;;;;;;;;5083265;28;63268;-79
2023/03/03 02:46:18;;;;;;;;;48.33;40.33;;;;;;;;5083850;27;61605;-79
2023/03/03 02:48:43;;;;;;;;;46.00;38.33;;;;;;;;5083968;27;61715;-79
2023/03/03 02:51:08;;;;;;;;;47.67;37.67;;;;;;;;5065614;28;61931;-79
2023/03/03 02:53:33;;;;;;;;;53.00;41.67;;;;;;;;5064450;27;64768;-79
2023/03/03 02:55:59;;;;;;;;;49.33;40.33;;;;;;;;5083543;28;61705;-79
2023/03/03 02:58:24;;;;;;;;;57.33;44.00;;;;;;;;5083670;27;61756;-79
2023/03/03 03:00:49;;;;;;;;;53.00;40.00;;;;;;;;5065214;28;61798;-79
2023/03/03 03:03:14;;;;;;;;;57.67;43.00;;;;;;;;5064610;28;63718;-79
2023/03/03 03:05:40;;;;;;;;;59.67;41.33;;;;;;;;5082852;28;62034;-79
2023/03/03 03:08:05;;;;;;;;;48.00;43.00;;;;;;;;5083329;27;61965;-79
2023/03/03 03:10:30;;;;;;;;;47.33;31.33;;;;;;;;5065077;28;61889;-79
2023/03/03 03:12:56;;;;;;;;;59.00;42.33;;;;;;;;5064590;28;63996;-79
2023/03/03 03:15:21;;;;;;;;;46.00;37.00;;;;;;;;5083280;27;61791;-79
2023/03/03 03:17:46;;;;;;;;;56.33;42.67;;;;;;;;5083754;28;61710;-79
2023/03/03 03:20:12;;;;;;;;;63.67;44.33;;;;;;;;5064784;28;61896;-79
2023/03/03 03:22:37;;;;;;;;;55.00;41.00;;;;;;;;5064455;28;64632;-79
2023/03/03 03:25:02;;;;;;;;;46.67;41.67;;;;;;;;5064942;28;61874;-79
2023/03/03 03:27:28;;;;;;;;;54.00;43.00;;;;;;;;5064909;28;61837;-79
2023/03/03 03:29:53;;;;;;;;;59.33;44.00;;;;;;;;5083170;28;61812;-79
2023/03/03 03:32:18;;;;;;;;;62.00;42.33;;;;;;;;5082043;28;61993;-79
2023/03/03 03:34:43;;;;;;;;;55.33;42.33;;;;;;;;5083259;28;62103;-79
2023/03/03 03:37:09;;;;;;;;;64.67;44.67;;;;;;;;5083455;28;61959;-79
2023/03/03 03:39:34;;;;;;;;;54.00;43.33;;;;;;;;5082444;27;61821;-79
2023/03/03 03:41:59;;;;;;;;;45.33;38.33;;;;;;;;5082615;28;62963;-79
2023/03/03 03:44:25;;;;;;;;;48.67;38.67;;;;;;;;5082873;27;61834;-79
2023/03/03 03:46:50;;;;;;;;;47.67;39.33;;;;;;;;5064994;28;61748;-79
2023/03/03 03:49:15;;;;;;;;;56.67;45.00;;;;;;;;5083097;28;62475;-79
2023/03/03 03:51:40;;;;;;;;;68.00;46.00;;;;;;;;5064031;28;63645;-79
2023/03/03 03:54:06;;;;;;;;;61.33;44.67;;;;;;;;5063919;28;62074;-79
2023/03/03 03:56:31;;;;;;;;;63.00;45.33;;;;;;;;5064756;28;62035;-79
2023/03/03 03:58:56;;;;;;;;;59.33;42.67;;;;;;;;5064407;28;61870;-79
2023/03/03 04:01:22;;;;;;;;;45.67;41.33;;;;;;;;5063800;28;64775;-79
2023/03/03 04:03:48;;;;;;;;;58.00;42.00;;;;;;;;5064367;28;61989;-79
2023/03/03 04:06:13;;;;;;;;;55.33;42.67;;;;;;;;5082955;28;61881;-79
2023/03/03 04:08:38;;;;;;;;;62.67;42.33;;;;;;;;5064033;28;61741;-79
2023/03/03 04:11:04;;;;;;;;;52.00;41.00;;;;;;;;5063864;28;63599;-79
2023/03/03 04:13:30;;;;;;;;;49.67;39.00;;;;;;;;5082632;28;62044;-79
2023/03/03 04:15:56;;;;;;;;;51.33;33.67;;;;;;;;5064454;28;62425;-79
2023/03/03 04:18:21;;;;;;;;;56.33;43.67;;;;;;;;5086232;27;61890;-79
2023/03/03 04:20:46;;;;;;;;;63.67;39.00;;;;;;;;5067068;28;63528;-79
2023/03/03 04:23:12;;;;;;;;;56.67;44.33;;;;;;;;5085934;27;61980;-79
2023/03/03 04:25:37;;;;;;;;;58.33;42.33;;;;;;;;5067674;28;61979;-79
2023/03/03 04:28:03;;;;;;;;;50.33;42.00;;;;;;;;5067760;27;61755;-79
2023/03/03 04:30:28;;;;;;;;;55.67;41.33;;;;;;;;5085056;27;62675;-79
2023/03/03 04:32:53;;;;;;;;;61.00;42.67;;;;;;;;5067239;28;61870;-80
2023/03/03 04:35:18;;;;;;;;;52.67;39.00;;;;;;;;5067886;28;61750;-80
2023/03/03 04:37:44;;;;;;;;;65.67;49.33;;;;;;;;5067188;28;61853;-80
2023/03/03 04:40:09;;;;;;;;;53.33;41.00;;;;;;;;5066864;28;64006;-80
2023/03/03 04:42:35;;;;;;;;;55.67;44.00;;;;;;;;5067457;28;61797;-80
2023/03/03 04:45:00;;;;;;;;;48.33;38.00;;;;;;;;5067691;28;61743;-79
2023/03/03 04:47:25;;;;;;;;;57.00;42.00;;;;;;;;5067789;28;61773;-79
2023/03/03 04:49:51;;;;;;;;;58.00;41.33;;;;;;;;5066551;28;64843;-79
2023/03/03 04:52:16;;;;;;;;;63.67;40.00;;;;;;;;5085409;27;61925;-79
2023/03/03 04:54:42;;;;;;;;;53.00;43.67;;;;;;;;5066932;28;61987;-79
2023/03/03 04:57:08;;;;;;;;;61.67;45.00;;;;;;;;5086195;27;61648;-79
2023/03/03 04:59:34;;;;;;;;;55.33;46.67;;;;;;;;5084509;27;61827;-79
2023/03/03 05:01:59;;;;;;;;;61.00;44.67;;;;;;;;5067209;28;61805;-79
2023/03/03 05:04:24;;;;;;;;;61.67;44.67;;;;;;;;5067341;28;61838;-79
2023/03/03 05:06:49;;;;;;;;;52.67;41.33;;;;;;;;5085363;28;61883;-79
2023/03/03 05:09:15;;;;;;;;;66.00;49.33;;;;;;;;5066104;28;63947;-80
2023/03/03 05:11:40;;;;;;;;;63.33;49.00;;;;;;;;5085201;27;61849;-80
2023/03/03 05:14:07;;;;;;;;;62.00;45.00;;;;;;;;5067340;27;62063;-80
2023/03/03 05:16:32;;;;;;;;;57.33;44.00;;;;;;;;5067416;28;61809;-80
2023/03/03 05:18:57;;;;;;;;;66.00;45.33;;;;;;;;5084616;27;62006;-79
2023/03/03 05:21:23;;;;;;;;;63.67;46.67;;;;;;;;5066708;28;61996;-79
2023/03/03 05:23:48;;;;;;;;;56.00;45.33;;;;;;;;5084928;28;61913;-79
2023/03/03 05:26:13;;;;;;;;;60.00;43.67;;;;;;;;5067119;27;61991;-79
2023/03/03 05:28:39;;;;;;;;;57.67;47.33;;;;;;;;5065537;28;64576;-79
2023/03/03 05:31:04;;;;;;;;;61.67;44.67;;;;;;;;5084583;28;61884;-79
2023/03/03 05:33:29;;;;;;;;;53.33;41.67;;;;;;;;5072747;28;62034;-79
2023/03/03 05:35:55;;;;;;;;;62.00;47.00;;;;;;;;5066665;28;61695;-79
2023/03/03 05:38:21;;;;;;;;;56.67;44.00;;;;;;;;5084113;27;61915;-79
2023/03/03 05:40:46;;;;;;;;;59.33;41.67;;;;;;;;5084783;27;61857;-79
2023/03/03 05:43:11;;;;;;;;;56.33;45.00;;;;;;;;5085032;27;61808;-79
2023/03/03 05:45:37;;;;;;;;;50.67;42.33;;;;;;;;5066780;28;61871;-79
2023/03/03 05:48:03;;;;;;;;;61.67;46.00;;;;;;;;5065569;28;63660;-79
2023/03/03 05:50:29;;;;;;;;;73.33;48.67;;;;;;;;5084762;28;61722;-79
2023/03/03 05:52:54;;;;;;;;;66.67;45.33;;;;;;;;5084464;27;63034;-79
2023/03/03 05:55:19;;;;;;;;;52.33;44.33;;;;;;;;5066556;27;61910;-79
2023/03/03 05:57:45;;;;;;;;;63.67;48.33;;;;;;;;5084247;28;61940;-79
2023/03/03 06:00:11;;;;;;;;;63.00;45.67;;;;;;;;5065938;28;61894;-79
2023/03/03 06:02:36;;;;;;;;;71.00;48.67;;;;;;;;5084713;28;61796;-79
2023/03/03 06:05:02;;;;;;;;;65.00;43.67;;;;;;;;5066344;28;61852;-79
2023/03/03 06:07:27;;;;;;;;;63.00;46.33;;;;;;;;5065651;28;64882;-79
2023/03/03 06:09:52;;;;;;;;;74.67;48.33;;;;;;;;5065547;28;61712;-79
2023/03/03 06:12:17;;;;;;;;;67.67;47.33;;;;;;;;5066114;27;61889;-79
2023/03/03 06:14:43;;;;;;;;;55.67;44.33;;;;;;;;5084785;27;61756;-79
2023/03/03 06:17:09;;;;;;;;;55.67;41.67;;;;;;;;5065267;28;64930;-79
2023/03/03 06:19:35;;;;;;;;;57.33;45.00;;;;;;;;5084050;27;61923;-79
2023/03/03 06:22:00;;;;;;;;;54.33;45.33;;;;;;;;5065916;28;61772;-79
2023/03/03 06:24:29;;;;;;;;;58.33;42.67;;;;;;;;5084076;27;61862;-79
2023/03/03 06:26:54;;;;;;;;;65.00;46.33;;;;;;;;5065276;28;64161;-81
2023/03/03 06:29:20;;;;;;;;;58.00;44.00;;;;;;;;5065097;28;61870;-83
2023/03/03 06:31:46;;;;;;;;;65.00;44.00;;;;;;;;5083507;28;61796;-81
2023/03/03 06:34:18;;;;;;;;;63.33;44.67;;;;;;;;5084166;28;61871;-82
2023/03/03 06:36:44;;;;;;;;;51.00;42.00;;;;;;;;5083601;27;62019;-82
2023/03/03 06:39:09;;;;;;;;;62.33;48.67;;;;;;;;5065405;28;62182;-82
2023/03/03 06:41:34;;;;;;;;;67.67;44.67;;;;;;;;5064595;28;61785;-82
2023/03/03 06:43:59;;;;;;;;;56.67;45.00;;;;;;;;5065686;28;61910;-81
2023/03/03 06:46:25;;;;;;;;;67.33;51.67;;;;;;;;5064825;28;63727;-82
2023/03/03 06:48:50;;;;;;;;;67.00;43.33;;;;;;;;5079313;27;61775;-82
2023/03/03 06:51:28;;;;;;;;;74.33;51.33;;;;;;;;5080911;28;61754;-82
2023/03/03 06:53:55;;;;;;;;;60.00;50.00;;;;;;;;5065609;28;62197;-82
2023/03/03 06:56:21;;;;;;;;;60.33;44.33;;;;;;;;5064457;28;64073;-82
2023/03/03 06:58:46;;;;;;;;;59.33;46.33;;;;;;;;5065047;28;61876;-82
2023/03/03 07:01:16;;;;;;;;;61.67;47.00;;;;;;;;5065005;28;61801;-82
2023/03/03 07:03:41;;;;;;;;;71.00;44.00;;;;;;;;5065583;28;61754;-82
2023/03/03 07:06:24;;;;;;;;;60.33;44.67;;;;;;;;5082818;28;63158;-82
2023/03/03 07:08:50;;;;;;;;;54.33;45.00;;;;;;;;5065017;28;61877;-83
2023/03/03 07:11:17;;;;;;;;;63.67;47.33;;;;;;;;5083104;28;61850;-83
2023/03/03 07:13:46;;;;;;;;;58.67;45.67;;;;;;;;5065513;28;62013;-83
2023/03/03 07:16:13;;;;;;;;;61.33;45.00;;;;;;;;5064067;28;64155;-83
2023/03/03 07:18:43;;;;;;;;;64.00;48.67;;;;;;;;5065096;28;61698;-83
2023/03/03 07:21:44;;;;;;;;;67.33;49.00;;;;;;;;5083335;28;61770;-83
2023/03/03 07:24:18;;;;;;;;;73.67;49.67;;;;;;;;5020292;28;61860;-83
2023/03/03 07:26:43;;;;;;;;;71.67;49.00;;;;;;;;5019578;28;65135;-83
2023/03/03 07:29:20;;;;;;;;;61.67;52.00;;;;;;;;5003185;28;62101;-83
2023/03/03 07:31:47;;;;;;;;;66.00;51.33;;;;;;;;5011908;28;62009;-82
2023/03/03 07:34:23;;;;;;;;;76.67;52.00;;;;;;;;5003838;28;62362;-82
2023/03/03 07:36:49;;;;;;;;;71.67;49.33;;;;;;;;5019449;28;62174;-82
2023/03/03 07:39:17;;;;;;;;;69.33;48.00;;;;;;;;5003210;28;61966;-83
2023/03/03 07:41:42;;;;;;;;;70.33;47.00;;;;;;;;5003501;28;61881;-83
2023/03/03 07:44:21;;;;;;;;;62.00;46.67;;;;;;;;5003303;28;61804;-83
2023/03/03 07:46:47;;;;;;;;;72.33;52.33;;;;;;;;5019530;28;62054;-80
2023/03/03 07:49:35;;;;;;;;;76.00;54.00;;;;;;;;5002956;28;62367;-79
2023/03/03 07:52:16;;;;;;;;;64.00;48.33;;;;;;;;4999326;28;62013;-81
2023/03/03 07:54:42;;;;;;;;;74.67;52.00;;;;;;;;5013367;28;62218;-81
2023/03/03 07:57:11;;;;;;;;;64.67;47.67;;;;;;;;5024332;28;62356;-81
2023/03/03 07:59:38;;;;;;;;;58.33;45.33;;;;;;;;5062130;28;61910;-82
2023/03/03 08:02:11;;;;;;;;;75.00;54.67;;;;;;;;5081982;27;61755;-82
2023/03/03 08:04:39;;;;;;;;;71.67;50.33;;;;;;;;5081160;28;61856;-81
2023/03/03 08:07:10;;;;;;;;;72.33;54.67;;;;;;;;5061883;28;64924;-81
2023/03/03 08:09:38;;;;;;;;;78.00;53.33;;;;;;;;5062960;28;61771;-81
2023/03/03 08:12:06;;;;;;;;;71.33;54.33;;;;;;;;5080783;28;61862;-80
2023/03/03 08:14:36;;;;;;;;;72.67;53.33;;;;;;;;5054804;28;61871;-82
2023/03/03 08:17:06;;;;;;;;;67.67;47.67;;;;;;;;5052085;28;64797;-82
2023/03/03 08:19:32;;;;;;;;;68.00;46.67;;;;;;;;5071766;27;62031;-81
2023/03/03 08:22:02;;;;;;;;;75.00;56.00;;;;;;;;5078443;28;61912;-81
2023/03/03 08:24:27;;;;;;;;;72.33;49.67;;;;;;;;5064081;28;61730;-81
2023/03/03 08:26:52;;;;;;;;;74.00;52.33;;;;;;;;5081755;28;61789;-82
2023/03/03 08:29:18;;;;;;;;;69.00;53.00;;;;;;;;5081870;27;61719;-82
2023/03/03 08:31:43;;;;;;;;;72.33;51.33;;;;;;;;5081835;28;61747;-82
2023/03/03 08:34:08;;;;;;;;;71.00;54.00;;;;;;;;5078784;27;61633;-82
2023/03/03 08:36:33;;;;;;;;;72.67;50.00;;;;;;;;5078641;28;61899;-80
2023/03/03 08:38:59;;;;;;;;;66.00;51.33;;;;;;;;5064084;28;61718;-81
2023/03/03 08:41:24;;;;;;;;;70.67;52.00;;;;;;;;5082177;28;61792;-81
2023/03/03 08:43:49;;;;;;;;;67.00;49.67;;;;;;;;5063927;28;61823;-81
2023/03/03 08:46:15;;;;;;;;;73.00;49.67;;;;;;;;5081680;27;62839;-81
2023/03/03 08:48:40;;;;;;;;;68.33;47.67;;;;;;;;5061365;28;61791;-80
2023/03/03 08:51:05;;;;;;;;;68.33;52.33;;;;;;;;5063693;28;61808;-81
2023/03/03 08:53:33;;;;;;;;;64.67;52.67;;;;;;;;5081890;28;61734;-80
2023/03/03 08:55:58;;;;;;;;;61.33;46.00;;;;;;;;5081190;27;61853;-80
2023/03/03 08:58:23;;;;;;;;;63.00;50.67;;;;;;;;5081835;28;61890;-81
2023/03/03 09:00:49;;;;;;;;;68.67;47.33;;;;;;;;5063101;28;61944;-81
2023/03/03 09:03:14;;;;;;;;;69.33;50.67;;;;;;;;5059282;28;61842;-82
2023/03/03 09:05:39;;;;;;;;;72.00;48.00;;;;;;;;5085071;28;61916;-81
2023/03/03 09:08:05;;;;;;;;;67.33;47.00;;;;;;;;5066519;27;62012;-81
2023/03/03 09:10:31;;;;;;;;;65.00;51.67;;;;;;;;5084959;27;61880;-81
2023/03/03 09:12:57;;;;;;;;;61.67;48.00;;;;;;;;5085247;28;62419;-81
2023/03/03 09:15:23;;;;;;;;;61.00;44.33;;;;;;;;5084804;27;61956;-81
2023/03/03 09:17:48;;;;;;;;;65.00;49.33;;;;;;;;5067159;28;61861;-81
2023/03/03 09:20:26;;;;;;;;;69.00;46.00;;;;;;;;5066693;28;61859;-81
2023/03/03 09:22:51;;;;;;;;;57.33;46.33;;;;;;;;5066637;28;61811;-81
2023/03/03 09:25:23;;;;;;;;;64.67;47.33;;;;;;;;5084750;28;61775;-81
2023/03/03 09:27:48;;;;;;;;;57.00;46.67;;;;;;;;5066512;28;61787;-81
2023/03/03 09:30:25;;;;;;;;;64.67;49.67;;;;;;;;5066149;28;61731;-81
2023/03/03 09:32:52;;;;;;;;;62.33;47.33;;;;;;;;5084569;28;61989;-81
2023/03/03 09:35:36;;;;;;;;;67.00;45.33;;;;;;;;5066247;28;63791;-81
2023/03/03 09:38:05;;;;;;;;;58.50;41.75;;;;;;;;5084464;28;61879;-81
2023/03/03 09:40:45;;;;;;;;;57.00;42.00;;;;;;;;5066301;28;61755;-81
2023/03/03 09:43:22;;;;;;;;;75.33;48.00;;;;;;;;5085215;27;61975;-82
2023/03/03 09:46:17;;;;;;;;;62.00;44.00;;;;;;;;5084443;27;61862;-82
2023/03/03 09:48:58;;;;;;;;;48.25;41.50;;;;;;;;5084541;27;62142;-82
2023/03/03 09:51:36;;;;;;;;;64.33;48.00;;;;;;;;5060342;27;61965;-82
2023/03/03 09:54:01;;;;;;;;;62.75;42.00;;;;;;;;5059718;28;62198;-82
2023/03/03 09:56:59;;;;;;;;;59.75;40.75;;;;;;;;5082172;28;61879;-82
2023/03/03 09:59:42;;;;;;;;;50.25;42.75;;;;;;;;4981775;28;61993;-82
2023/03/03 10:02:20;;;;;;;;;67.00;45.00;;;;;;;;4982015;28;61977;-82
2023/03/03 10:05:04;;;;;;;;;58.00;44.00;;;;;;;;4982115;28;61933;-82
2023/03/03 10:07:29;;;;;;;;;58.33;42.33;;;;;;;;4981497;28;64858;-80
2023/03/03 10:09:54;;;;;;;;;54.00;42.75;;;;;;;;4981405;28;61945;-78
2023/03/03 10:12:26;;;;;;;;;62.75;43.75;;;;;;;;4981837;28;61820;-78
2023/03/03 10:15:10;;;;;;;;;55.75;44.50;;;;;;;;4964875;28;61876;-79
2023/03/03 10:17:41;;;;;;;;;54.50;39.75;;;;;;;;4981230;28;63178;-79
2023/03/03 10:20:07;;;;;;;;;60.25;43.25;;;;;;;;4981706;28;62130;-79
2023/03/03 10:22:32;;;;;;;;;51.75;38.00;;;;;;;;4981799;28;61867;-79
2023/03/03 10:25:16;;;;;;;;;44.25;34.25;;;;;;;;4981156;28;62083;-79
2023/03/03 10:27:56;;;;;;;;;53.00;39.75;;;;;;;;4981108;28;61874;-79
2023/03/03 10:30:27;;;;;;;;;41.75;35.00;;;;;;;;4981165;28;61920;-79
2023/03/03 10:32:56;;;;;;;;;48.25;39.25;;;;;;;;4964851;28;62170;-79
2023/03/03 10:35:33;;;;;;;;;48.00;39.75;;;;;;;;5013568;28;62160;-79
2023/03/03 10:38:10;;;;;;;;;56.50;41.00;;;;;;;;5042868;28;62137;-79
2023/03/03 10:40:44;;;;;;;;;53.25;43.25;;;;;;;;5043407;28;61746;-79
2023/03/03 10:43:30;;;;;;;;;48.25;38.25;;;;;;;;5042344;28;61865;-79
2023/03/03 10:46:09;;;;;;;;;55.75;36.00;;;;;;;;5042462;28;62180;-79
2023/03/03 10:48:35;;;;;;;;;48.50;37.75;;;;;;;;5040297;28;63719;-81
2023/03/03 10:51:18;;;;;;;;;45.75;37.00;;;;;;;;5036452;28;61800;-79
2023/03/03 10:54:02;;;;;;;;;49.50;38.50;;;;;;;;5043016;28;61891;-79
2023/03/03 10:56:33;;;;;;;;;49.25;35.25;;;;;;;;5043271;28;61313;-79
2023/03/03 10:58:58;;;;;;;;;40.75;35.50;;;;;;;;5041021;28;64804;-79
2023/03/03 11:01:35;;;;;;;;;44.75;35.25;;;;;;;;5043065;28;61824;-79
2023/03/03 11:04:18;;;;;;;;;45.50;37.25;;;;;;;;5043387;28;61722;-79
2023/03/03 11:07:06;;;;;;;;;54.25;36.75;;;;;;;;5041350;28;61869;-80
2023/03/03 11:09:32;;;;;;;;;51.75;36.50;;;;;;;;5033049;28;63130;-80
2023/03/03 11:12:03;;;;;;;;;36.50;32.00;;;;;;;;5040157;28;62075;-79
2023/03/03 11:14:31;;;;;;;;;41.75;36.00;;;;;;;;5042195;28;62653;-79
2023/03/03 11:17:15;;;;;;;;;46.75;35.75;;;;;;;;5042499;28;61918;-80
2023/03/03 11:19:43;;;;;;;;;52.00;36.25;;;;;;;;5041926;28;62155;-80
2023/03/03 11:22:12;;;;;;;;;45.50;36.00;;;;;;;;5042262;28;61786;-80
2023/03/03 11:24:49;;;;;;;;;48.50;35.25;;;;;;;;5040853;28;61778;-80
2023/03/03 11:27:15;;;;;;;;;43.00;31.25;;;;;;;;5042454;28;61683;-80
2023/03/03 11:29:40;;;;;;;;;51.75;36.00;;;;;;;;5040363;28;65267;-80
2023/03/03 11:32:11;;;;;;;;;43.75;33.50;;;;;;;;5051255;28;61829;-80
2023/03/03 11:34:49;;;;;;;;;46.00;32.75;;;;;;;;5062649;28;61774;-80
2023/03/03 11:37:34;;;;;;;;;50.50;32.50;;;;;;;;5062839;28;61811;-80
2023/03/03 11:40:02;;;;;;;;;40.00;30.75;;;;;;;;5060233;28;63723;-80
2023/03/03 11:42:34;;;;;;;;;44.00;33.50;;;;;;;;5062754;28;61834;-80
2023/03/03 11:45:10;;;;;;;;;31.25;23.50;;;;;;;;5061512;28;61786;-80
2023/03/03 11:47:57;;;;;;;;;37.50;34.25;;;;;;;;5061448;28;62012;-80
2023/03/03 11:50:27;;;;;;;;;46.00;31.75;;;;;;;;5062014;28;61928;-80
2023/03/03 11:53:08;;;;;;;;;44.75;27.50;;;;;;;;5062168;28;61845;-80
2023/03/03 11:55:38;;;;;;;;;38.25;27.75;;;;;;;;5061305;28;62033;-80
2023/03/03 11:58:06;;;;;;;;;39.50;31.00;;;;;;;;5061475;28;61766;-81
2023/03/03 12:00:44;;;;;;;;;31.25;28.00;;;;;;;;5061517;28;62925;-81
2023/03/03 12:03:15;;;;;;;;;31.25;23.75;;;;;;;;5062551;28;61750;-81
2023/03/03 12:06:13;;;;;;;;;37.75;31.00;;;;;;;;5062317;28;62051;-81
2023/03/03 12:08:41;;;;;;;;;37.25;25.50;;;;;;;;5049316;28;62106;-81
2023/03/03 12:11:11;;;;;;;;;33.75;26.00;;;;;;;;5060422;28;63861;-81
2023/03/03 12:13:39;;;;;;;;;33.25;22.00;;;;;;;;5060736;28;61760;-81
2023/03/03 12:16:07;;;;;;;;;35.00;24.25;;;;;;;;5058616;28;61830;-81
2023/03/03 12:18:51;;;;;;;;;31.25;25.00;;;;;;;;5056202;28;62040;-81
2023/03/03 12:21:17;;;;;;;;;26.50;25.25;;;;;;;;5051004;28;63567;-81
2023/03/03 12:23:48;;;;;;;;;30.00;23.25;;;;;;;;5050291;28;62091;-81
2023/03/03 12:26:32;;;;;;;;;35.75;21.50;;;;;;;;5058572;28;62174;-80
2023/03/03 12:29:04;;;;;;;;;30.00;21.75;;;;;;;;5054147;28;61718;-81
2023/03/03 12:31:40;;;;;;;;;22.75;22.50;;;;;;;;5045600;28;63766;-81
2023/03/03 12:34:22;;;;;;;;;18.75;18.75;;;;;;;;5061845;28;61889;-81
2023/03/03 12:36:54;;;;;;;;;29.25;18.00;;;;;;;;5060489;28;61823;-81
2023/03/03 12:39:31;;;;;;;;;29.00;23.75;;;;;;;;5057798;28;61873;-81
2023/03/03 12:42:09;;;;;;;;;23.00;18.50;;;;;;;;5061922;28;63726;-81
2023/03/03 12:44:40;;;;;;;;;25.00;18.25;;;;;;;;5064153;28;61766;-81
2023/03/03 12:47:13;;;;;;;;;24.50;17.50;;;;;;;;5065626;28;61931;-81
2023/03/03 12:49:53;;;;;;;;;18.00;14.50;;;;;;;;5062231;28;61707;-81
2023/03/03 12:52:42;;;;;;;;;23.75;18.00;;;;;;;;5042997;28;64391;-81
2023/03/03 12:55:07;;;;;;;;;25.25;20.00;;;;;;;;5040716;28;61893;-80
2023/03/03 12:57:33;;;;;;;;;24.25;18.50;;;;;;;;5049049;28;61956;-79
2023/03/03 13:00:01;;;;;;;;;25.50;21.50;;;;;;;;5043209;28;61814;-79
2023/03/03 13:02:30;;;;;;;;;22.00;19.00;;;;;;;;5043321;28;63615;-79
2023/03/03 13:05:00;;;;;;;;;18.50;15.00;;;;;;;;5043197;28;61819;-79
2023/03/03 13:07:34;;;;;;;;;23.50;16.25;;;;;;;;5043877;28;61815;-79
2023/03/03 13:10:22;;;;;;;;;25.00;17.00;;;;;;;;5056158;28;61961;-79
2023/03/03 13:13:01;;;;;;;;;30.25;17.00;;;;;;;;5043877;28;62740;-79
2023/03/03 13:15:32;;;;;;;;;24.25;16.50;;;;;;;;5043491;28;61844;-81
2023/03/03 13:18:03;;;;;;;;;25.75;18.50;;;;;;;;5043402;28;62094;-81
2023/03/03 13:20:51;;;;;;;;;22.75;17.25;;;;;;;;5045101;28;61938;-81
2023/03/03 13:23:19;;;;;;;;;20.50;14.50;;;;;;;;5042600;28;63460;-81
2023/03/03 13:25:44;;;;;;;;;24.00;15.75;;;;;;;;5043466;28;62190;-79
2023/03/03 13:28:20;;;;;;;;;19.50;18.00;;;;;;;;5050799;28;62228;-79
2023/03/03 13:30:53;;;;;;;;;27.75;19.75;;;;;;;;5063324;28;61764;-79
2023/03/03 13:33:27;;;;;;;;;13.00;11.75;;;;;;;;5067970;28;64447;-80
2023/03/03 13:35:58;;;;;;;;;18.75;14.25;;;;;;;;5066745;28;61776;-79
2023/03/03 13:38:30;;;;;;;;;30.00;15.25;;;;;;;;5066519;27;61692;-79
2023/03/03 13:41:14;;;;;;;;;19.50;16.50;;;;;;;;5084858;28;62215;-79
2023/03/03 13:43:43;;;;;;;;;17.25;15.25;;;;;;;;5084361;27;62829;-80
2023/03/03 13:46:26;;;;;;;;;17.75;16.50;;;;;;;;5066340;28;61837;-79
2023/03/03 13:48:58;;;;;;;;;22.00;16.25;;;;;;;;5084349;28;62038;-80
2023/03/03 13:51:42;;;;;;;;;25.75;19.50;;;;;;;;5066345;27;61754;-79
2023/03/03 13:54:16;;;;;;;;;16.75;16.75;;;;;;;;5068930;27;63146;-81
2023/03/03 13:56:47;;;;;;;;;18.25;15.00;;;;;;;;5055408;27;62049;-81
2023/03/03 13:59:19;;;;;;;;;19.50;17.25;;;;;;;;5063146;28;61949;-81
2023/03/03 14:01:53;;;;;;;;;21.50;15.75;;;;;;;;5066280;28;61886;-80
2023/03/03 14:04:34;;;;;;;;;21.25;18.50;;;;;;;;5083979;27;61909;-80
2023/03/03 14:07:08;;;;;;;;;16.25;9.00;;;;;;;;5069616;27;61788;-80
2023/03/03 14:09:45;;;;;;;;;20.75;16.75;;;;;;;;5064067;28;62058;-79
2023/03/03 14:12:22;;;;;;;;;23.75;17.00;;;;;;;;5046966;28;61882;-80
2023/03/03 14:14:48;;;;;;;;;20.50;14.75;;;;;;;;5045274;28;63877;-80
2023/03/03 14:17:33;;;;;;;;;22.00;18.25;;;;;;;;5050022;28;61945;-80
2023/03/03 14:20:03;;;;;;;;;22.75;19.25;;;;;;;;5046167;28;61771;-80
2023/03/03 14:22:34;;;;;;;;;28.25;19.00;;;;;;;;5046449;28;62197;-80
2023/03/03 14:25:08;;;;;;;;;17.25;13.75;;;;;;;;5046988;28;65155;-80
2023/03/03 14:27:53;;;;;;;;;23.50;19.00;;;;;;;;5050991;28;61875;-81
2023/03/03 14:30:21;;;;;;;;;24.25;19.25;;;;;;;;5062361;28;62076;-81